Time;durP1;ratioP1;P1;durP2;ratioP2;P2;SDS_P1;SDS_P2;PMS_P1;PMS_P2;Temp;Humidity;BMP_temperature;BMP_pressure;BME280_temperature;BME280_humidity;BME280_pressure;Samples;Min_cycle;Max_cycle;Signal;HPM_P1;HPM_P2
2023/10/21 00:01:45;;;;;;;16.37;9.33;;;;;;;;;;5028992;28;20591;-57
2023/10/21 00:04:10;;;;;;;14.00;9.40;;;;;;;;;;5029891;28;20048;-57
2023/10/21 00:06:36;;;;;;;15.90;10.83;;;;;;;;;;5012559;28;20563;-57
2023/10/21 00:09:01;;;;;;;13.30;9.00;;;;;;;;;;5010558;28;20456;-57
2023/10/21 00:11:26;;;;;;;21.83;11.80;;;;;;;;;;5009101;28;20455;-57
2023/10/21 00:13:51;;;;;;;23.45;10.73;;;;;;;;;;5010691;28;20017;-57
2023/10/21 00:16:17;;;;;;;19.00;10.80;;;;;;;;;;5009494;28;20038;-57
2023/10/21 00:18:42;;;;;;;15.20;9.80;;;;;;;;;;5010768;28;20460;-57
2023/10/21 00:21:07;;;;;;;12.03;8.33;;;;;;;;;;5008851;28;20038;-57
2023/10/21 00:23:32;;;;;;;16.17;9.10;;;;;;;;;;5010794;28;20028;-57
2023/10/21 00:26:00;;;;;;;10.47;8.10;;;;;;;;;;5008647;28;20034;-56
2023/10/21 00:28:25;;;;;;;9.77;8.57;;;;;;;;;;5010704;28;20842;-57
2023/10/21 00:30:50;;;;;;;16.33;9.90;;;;;;;;;;5009234;28;20045;-57
2023/10/21 00:33:15;;;;;;;22.10;10.40;;;;;;;;;;5010384;28;20017;-57
2023/10/21 00:35:45;;;;;;;14.10;9.43;;;;;;;;;;5007702;28;20049;-56
2023/10/21 00:38:10;;;;;;;12.88;8.77;;;;;;;;;;5010693;28;20022;-57
2023/10/21 00:40:35;;;;;;;17.87;10.80;;;;;;;;;;5017359;28;20412;-57
2023/10/21 00:43:00;;;;;;;23.90;12.70;;;;;;;;;;5029839;28;20867;-57
2023/10/21 00:45:26;;;;;;;17.13;11.23;;;;;;;;;;5028926;28;20456;-57
2023/10/21 00:47:51;;;;;;;12.77;9.77;;;;;;;;;;5029317;28;20459;-57
2023/10/21 00:50:16;;;;;;;20.00;11.23;;;;;;;;;;5028552;28;20539;-57
2023/10/21 00:52:45;;;;;;;12.73;10.83;;;;;;;;;;5029920;28;20527;-57
2023/10/21 00:55:11;;;;;;;20.83;9.63;;;;;;;;;;5028241;28;20033;-57
2023/10/21 00:57:36;;;;;;;20.70;10.82;;;;;;;;;;5030191;28;20032;-57
2023/10/21 01:00:05;;;;;;;18.52;11.60;;;;;;;;;;5028464;28;20029;-57
2023/10/21 01:02:30;;;;;;;16.00;11.13;;;;;;;;;;5029960;28;20447;-57
2023/10/21 01:04:55;;;;;;;15.63;9.97;;;;;;;;;;5028471;28;20104;-57
2023/10/21 01:07:21;;;;;;;17.40;11.05;;;;;;;;;;5031562;28;20071;-56
2023/10/21 01:09:46;;;;;;;17.25;11.63;;;;;;;;;;5031822;28;20032;-56
2023/10/21 01:12:11;;;;;;;14.73;11.65;;;;;;;;;;5033527;28;20025;-57
2023/10/21 01:14:36;;;;;;;20.67;12.50;;;;;;;;;;5032134;28;20372;-56
2023/10/21 01:17:02;;;;;;;18.77;11.55;;;;;;;;;;5032817;28;20467;-56
2023/10/21 01:19:30;;;;;;;18.80;12.07;;;;;;;;;;5033731;28;20357;-57
2023/10/21 01:21:56;;;;;;;18.20;12.18;;;;;;;;;;5031485;28;20052;-57
2023/10/21 01:24:21;;;;;;;13.75;9.93;;;;;;;;;;5032582;28;20472;-56
2023/10/21 01:26:47;;;;;;;18.90;10.95;;;;;;;;;;5032090;28;20072;-56
2023/10/21 01:29:12;;;;;;;16.77;12.30;;;;;;;;;;5033138;28;20445;-56
2023/10/21 01:31:37;;;;;;;22.27;11.77;;;;;;;;;;5031447;28;20037;-57
2023/10/21 01:34:02;;;;;;;20.70;10.67;;;;;;;;;;5032939;28;20575;-56
2023/10/21 01:36:27;;;;;;;19.90;10.97;;;;;;;;;;5031685;28;20044;-57
2023/10/21 01:38:52;;;;;;;23.80;11.50;;;;;;;;;;5032603;28;20432;-56
2023/10/21 01:41:18;;;;;;;14.77;11.43;;;;;;;;;;5031152;28;20167;-56
2023/10/21 01:43:43;;;;;;;15.15;11.80;;;;;;;;;;5033034;28;20020;-57
2023/10/21 01:46:08;;;;;;;14.27;10.27;;;;;;;;;;5030947;28;20033;-56
2023/10/21 01:48:34;;;;;;;13.60;10.63;;;;;;;;;;5032341;28;20478;-56
2023/10/21 01:51:01;;;;;;;33.57;12.30;;;;;;;;;;5030993;28;20514;-56
2023/10/21 01:53:26;;;;;;;11.88;10.55;;;;;;;;;;5032936;28;20025;-57
2023/10/21 01:55:58;;;;;;;12.13;10.77;;;;;;;;;;5031008;28;20390;-57
2023/10/21 01:58:23;;;;;;;16.67;10.52;;;;;;;;;;5033056;28;20392;-57
2023/10/21 02:00:48;;;;;;;13.93;9.17;;;;;;;;;;5031165;28;20116;-57
2023/10/21 02:03:13;;;;;;;12.98;9.65;;;;;;;;;;5032124;28;20020;-58
2023/10/21 02:05:38;;;;;;;16.30;10.83;;;;;;;;;;5031167;28;20121;-58
2023/10/21 02:08:04;;;;;;;17.42;11.20;;;;;;;;;;5032337;28;20041;-57
2023/10/21 02:10:29;;;;;;;16.35;11.68;;;;;;;;;;5030717;28;20057;-57
2023/10/21 02:12:54;;;;;;;12.67;10.27;;;;;;;;;;5032457;28;20014;-57
2023/10/21 02:15:19;;;;;;;15.13;9.95;;;;;;;;;;5024912;28;20437;-56
2023/10/21 02:17:45;;;;;;;12.38;10.27;;;;;;;;;;5012200;28;20030;-56
2023/10/21 02:20:12;;;;;;;14.93;11.45;;;;;;;;;;5010609;28;20072;-57
2023/10/21 02:22:37;;;;;;;11.38;9.60;;;;;;;;;;5012616;28;20029;-57
2023/10/21 02:25:03;;;;;;;12.87;9.67;;;;;;;;;;5010600;28;20030;-57
2023/10/21 02:27:28;;;;;;;10.85;9.43;;;;;;;;;;5025645;28;20416;-57
2023/10/21 02:29:53;;;;;;;12.77;8.57;;;;;;;;;;5030539;28;20535;-57
2023/10/21 02:32:18;;;;;;;10.00;9.00;;;;;;;;;;5031743;28;20021;-57
2023/10/21 02:34:44;;;;;;;11.97;9.83;;;;;;;;;;5030666;28;20456;-58
2023/10/21 02:37:09;;;;;;;14.48;9.35;;;;;;;;;;5032099;28;20030;-57
2023/10/21 02:39:34;;;;;;;22.67;9.67;;;;;;;;;;5031744;28;20449;-56
2023/10/21 02:41:59;;;;;;;16.42;8.18;;;;;;;;;;5029945;28;20058;-57
2023/10/21 02:44:24;;;;;;;19.38;11.25;;;;;;;;;;5032071;28;20408;-57
2023/10/21 02:46:49;;;;;;;25.37;11.43;;;;;;;;;;5029936;28;20124;-57
2023/10/21 02:49:15;;;;;;;16.23;9.60;;;;;;;;;;5031853;28;20451;-56
2023/10/21 02:51:40;;;;;;;15.67;9.50;;;;;;;;;;5030404;28;20034;-57
2023/10/21 02:54:05;;;;;;;17.75;9.20;;;;;;;;;;5031099;28;20072;-57
2023/10/21 02:56:32;;;;;;;11.27;9.52;;;;;;;;;;5029913;28;20508;-57
2023/10/21 02:58:57;;;;;;;13.48;7.93;;;;;;;;;;5031330;28;20068;-57
2023/10/21 03:01:24;;;;;;;14.50;10.40;;;;;;;;;;5029952;28;20029;-57
2023/10/21 03:03:51;;;;;;;16.02;9.85;;;;;;;;;;5030908;28;20067;-57
2023/10/21 03:06:19;;;;;;;10.18;8.60;;;;;;;;;;5030211;28;20034;-56
2023/10/21 03:08:44;;;;;;;14.63;10.57;;;;;;;;;;5031015;28;20021;-57
2023/10/21 03:11:10;;;;;;;10.93;8.97;;;;;;;;;;5029810;28;20099;-57
2023/10/21 03:13:36;;;;;;;17.33;10.98;;;;;;;;;;5031626;28;20104;-57
2023/10/21 03:16:13;;;;;;;15.23;10.07;;;;;;;;;;5029134;28;20041;-56
2023/10/21 03:18:40;;;;;;;17.73;9.45;;;;;;;;;;5031142;28;20083;-56
2023/10/21 03:21:06;;;;;;;9.50;7.97;;;;;;;;;;5029670;28;20468;-57
2023/10/21 03:23:31;;;;;;;11.85;8.98;;;;;;;;;;5031015;28;20069;-57
2023/10/21 03:26:00;;;;;;;11.13;8.45;;;;;;;;;;5029608;28;20041;-58
2023/10/21 03:28:26;;;;;;;12.65;9.13;;;;;;;;;;5031313;28;20036;-57
2023/10/21 03:30:55;;;;;;;14.75;8.77;;;;;;;;;;5027816;28;20045;-58
2023/10/21 03:33:20;;;;;;;8.77;7.97;;;;;;;;;;5030867;28;20095;-56
2023/10/21 03:35:52;;;;;;;9.57;7.57;;;;;;;;;;5029683;28;20061;-57
2023/10/21 03:38:18;;;;;;;10.68;8.80;;;;;;;;;;5030675;28;20048;-57
2023/10/21 03:40:43;;;;;;;19.85;10.93;;;;;;;;;;5029728;28;20026;-57
2023/10/21 03:43:08;;;;;;;10.40;8.85;;;;;;;;;;5030740;28;20143;-57
2023/10/21 03:45:36;;;;;;;8.73;7.87;;;;;;;;;;5028477;28;20148;-57
2023/10/21 03:48:01;;;;;;;12.32;8.00;;;;;;;;;;5030955;28;20021;-57
2023/10/21 03:50:26;;;;;;;14.50;10.33;;;;;;;;;;5029230;28;20121;-57
2023/10/21 03:52:53;;;;;;;15.27;10.38;;;;;;;;;;5030259;28;20112;-57
2023/10/21 03:55:18;;;;;;;17.33;9.13;;;;;;;;;;5029258;28;20030;-57
2023/10/21 03:57:43;;;;;;;11.73;8.95;;;;;;;;;;5030892;28;20372;-57
2023/10/21 04:00:09;;;;;;;10.25;9.23;;;;;;;;;;5028754;28;20026;-57
2023/10/21 04:02:34;;;;;;;15.98;8.90;;;;;;;;;;5030721;28;20037;-57
2023/10/21 04:04:59;;;;;;;9.75;8.75;;;;;;;;;;5028427;28;20044;-57
2023/10/21 04:07:24;;;;;;;18.05;9.30;;;;;;;;;;5030286;28;20032;-57
2023/10/21 04:09:49;;;;;;;14.47;9.20;;;;;;;;;;5028803;28;20500;-57
2023/10/21 04:12:15;;;;;;;17.80;9.32;;;;;;;;;;5030354;28;20032;-55
2023/10/21 04:14:40;;;;;;;10.93;8.93;;;;;;;;;;5028058;28;20028;-56
2023/10/21 04:17:05;;;;;;;11.43;10.23;;;;;;;;;;5029727;28;20377;-57
2023/10/21 04:19:30;;;;;;;14.63;10.02;;;;;;;;;;5030543;28;20029;-56
2023/10/21 04:21:55;;;;;;;16.07;9.60;;;;;;;;;;5027875;28;20484;-56
2023/10/21 04:24:21;;;;;;;18.53;10.47;;;;;;;;;;5030584;28;20064;-57
2023/10/21 04:26:46;;;;;;;14.47;9.80;;;;;;;;;;5029037;28;20163;-57
2023/10/21 04:29:12;;;;;;;15.33;11.10;;;;;;;;;;5029757;28;20033;-56
2023/10/21 04:31:38;;;;;;;11.68;8.90;;;;;;;;;;5028022;28;20460;-56
2023/10/21 04:34:03;;;;;;;13.43;9.45;;;;;;;;;;5029719;28;20049;-56
2023/10/21 04:36:28;;;;;;;13.57;8.70;;;;;;;;;;5028091;28;20040;-56
2023/10/21 04:38:54;;;;;;;12.20;9.68;;;;;;;;;;5028585;28;20487;-56
2023/10/21 04:41:19;;;;;;;15.95;11.73;;;;;;;;;;5028732;28;20091;-57
2023/10/21 04:43:44;;;;;;;17.85;10.73;;;;;;;;;;5034440;28;20024;-56
2023/10/21 04:46:09;;;;;;;12.95;10.90;;;;;;;;;;5031708;28;20496;-57
2023/10/21 04:48:35;;;;;;;20.38;10.43;;;;;;;;;;5033838;28;20033;-56
2023/10/21 04:51:00;;;;;;;13.60;10.10;;;;;;;;;;5032556;28;20061;-56
2023/10/21 04:53:25;;;;;;;16.50;10.93;;;;;;;;;;5031783;28;20097;-57
2023/10/21 04:55:50;;;;;;;13.27;9.33;;;;;;;;;;5029879;28;20041;-56
2023/10/21 04:58:16;;;;;;;17.58;11.20;;;;;;;;;;5033510;28;20108;-57
2023/10/21 05:00:42;;;;;;;16.58;10.95;;;;;;;;;;5029671;28;20095;-56
2023/10/21 05:03:07;;;;;;;18.73;13.85;;;;;;;;;;5032237;28;20017;-56
2023/10/21 05:05:34;;;;;;;22.27;11.63;;;;;;;;;;5031384;28;20029;-56
2023/10/21 05:07:59;;;;;;;17.92;11.65;;;;;;;;;;5028749;28;20033;-56
2023/10/21 05:10:25;;;;;;;14.67;11.07;;;;;;;;;;5030184;28;20046;-56
2023/10/21 05:12:50;;;;;;;19.77;12.98;;;;;;;;;;5032479;28;20108;-56
2023/10/21 05:15:17;;;;;;;19.77;13.93;;;;;;;;;;5031200;28;20044;-56
2023/10/21 05:17:42;;;;;;;18.50;13.25;;;;;;;;;;5031757;28;20029;-56
2023/10/21 05:20:08;;;;;;;21.30;14.57;;;;;;;;;;5031320;28;20091;-56
2023/10/21 05:22:33;;;;;;;15.90;12.02;;;;;;;;;;5032583;28;20404;-56
2023/10/21 05:24:58;;;;;;;16.52;14.10;;;;;;;;;;5030580;28;20040;-56
2023/10/21 05:27:23;;;;;;;19.40;13.37;;;;;;;;;;5033178;28;20087;-57
2023/10/21 05:29:48;;;;;;;18.40;14.48;;;;;;;;;;5029989;28;20013;-56
2023/10/21 05:32:14;;;;;;;22.13;15.23;;;;;;;;;;5031378;28;20067;-56
2023/10/21 05:34:40;;;;;;;22.35;13.98;;;;;;;;;;5032580;28;20049;-57
2023/10/21 05:37:05;;;;;;;19.10;14.05;;;;;;;;;;5029805;28;20098;-57
2023/10/21 05:39:30;;;;;;;19.60;15.07;;;;;;;;;;5030634;28;20389;-57
2023/10/21 05:41:55;;;;;;;20.07;15.80;;;;;;;;;;5030654;28;20125;-57
2023/10/21 05:44:21;;;;;;;18.07;13.97;;;;;;;;;;5032065;28;20535;-57
2023/10/21 05:46:46;;;;;;;20.60;14.93;;;;;;;;;;5030031;28;20973;-57
2023/10/21 05:49:11;;;;;;;24.23;15.03;;;;;;;;;;5030852;28;20444;-56
2023/10/21 05:51:36;;;;;;;22.42;14.45;;;;;;;;;;5030312;28;20120;-56
2023/10/21 05:54:01;;;;;;;23.10;15.10;;;;;;;;;;5030420;28;20048;-57
2023/10/21 05:56:26;;;;;;;18.92;15.07;;;;;;;;;;5027726;28;20155;-56
2023/10/21 05:58:52;;;;;;;22.07;15.30;;;;;;;;;;5031513;28;20087;-57
2023/10/21 06:01:17;;;;;;;61.33;16.45;;;;;;;;;;5029226;28;20032;-57
2023/10/21 06:03:42;;;;;;;25.07;16.73;;;;;;;;;;5032033;28;20023;-56
2023/10/21 06:06:07;;;;;;;22.50;15.27;;;;;;;;;;5029541;28;20589;-56
2023/10/21 06:08:33;;;;;;;24.53;14.17;;;;;;;;;;5031315;28;20021;-57
2023/10/21 06:10:58;;;;;;;21.95;14.35;;;;;;;;;;5029703;28;20034;-57
2023/10/21 06:13:24;;;;;;;20.02;16.73;;;;;;;;;;5030860;28;20025;-56
2023/10/21 06:15:50;;;;;;;25.63;17.58;;;;;;;;;;5029396;28;20765;-57
2023/10/21 06:18:15;;;;;;;24.48;17.27;;;;;;;;;;5031621;28;20116;-56
2023/10/21 06:20:40;;;;;;;19.33;14.40;;;;;;;;;;5029702;28;20124;-57
2023/10/21 06:23:06;;;;;;;19.05;14.05;;;;;;;;;;5030798;28;20384;-56
2023/10/21 06:25:31;;;;;;;20.03;14.93;;;;;;;;;;5029882;28;20107;-57
2023/10/21 06:27:59;;;;;;;25.27;15.70;;;;;;;;;;5030491;28;20448;-57
2023/10/21 06:30:25;;;;;;;20.02;14.38;;;;;;;;;;5022687;28;20045;-56
2023/10/21 06:32:51;;;;;;;24.38;14.90;;;;;;;;;;5031015;28;20029;-56
2023/10/21 06:35:16;;;;;;;17.17;13.68;;;;;;;;;;5029154;28;20053;-55
2023/10/21 06:37:41;;;;;;;20.85;15.48;;;;;;;;;;5030492;28;20025;-55
2023/10/21 06:40:06;;;;;;;19.45;14.52;;;;;;;;;;5029300;28;20044;-55
2023/10/21 06:42:33;;;;;;;23.13;16.23;;;;;;;;;;5030646;28;20025;-55
2023/10/21 06:44:58;;;;;;;23.17;16.23;;;;;;;;;;5029353;28;20078;-55
2023/10/21 06:47:23;;;;;;;19.20;15.43;;;;;;;;;;5031165;28;20043;-56
2023/10/21 06:49:48;;;;;;;21.77;16.90;;;;;;;;;;5029290;28;20052;-55
2023/10/21 06:52:13;;;;;;;18.23;14.10;;;;;;;;;;5031549;28;20468;-56
2023/10/21 06:54:38;;;;;;;21.93;15.13;;;;;;;;;;5029830;28;20021;-55
2023/10/21 06:57:04;;;;;;;26.95;18.40;;;;;;;;;;5030862;28;20502;-56
2023/10/21 06:59:29;;;;;;;24.02;16.52;;;;;;;;;;5030687;28;20067;-56
2023/10/21 07:01:54;;;;;;;21.42;15.82;;;;;;;;;;5028286;28;20042;-58
2023/10/21 07:04:20;;;;;;;24.27;15.18;;;;;;;;;;5030653;28;20013;-56
2023/10/21 07:06:47;;;;;;;20.38;15.13;;;;;;;;;;5029394;28;20068;-57
2023/10/21 07:09:12;;;;;;;17.85;14.75;;;;;;;;;;5030207;28;20097;-56
2023/10/21 07:11:37;;;;;;;17.52;14.43;;;;;;;;;;5029486;28;20053;-56
2023/10/21 07:14:03;;;;;;;16.33;13.10;;;;;;;;;;5030247;28;20025;-56
2023/10/21 07:16:29;;;;;;;24.90;16.58;;;;;;;;;;5029034;28;20033;-56
2023/10/21 07:18:54;;;;;;;13.85;11.95;;;;;;;;;;5030313;28;20024;-56
2023/10/21 07:21:19;;;;;;;21.63;14.23;;;;;;;;;;5028312;28;20120;-56
2023/10/21 07:23:45;;;;;;;25.42;13.82;;;;;;;;;;5030706;28;21002;-56
2023/10/21 07:26:10;;;;;;;17.85;13.35;;;;;;;;;;5028762;28;20041;-56
2023/10/21 07:28:35;;;;;;;24.47;13.90;;;;;;;;;;5029499;28;20028;-56
2023/10/21 07:31:01;;;;;;;18.97;12.23;;;;;;;;;;5027903;28;20252;-56
2023/10/21 07:33:26;;;;;;;18.27;13.17;;;;;;;;;;5029395;28;20765;-56
2023/10/21 07:35:52;;;;;;;16.27;11.85;;;;;;;;;;5028841;28;20835;-56
2023/10/21 07:38:17;;;;;;;15.05;11.70;;;;;;;;;;5029361;28;20373;-56
2023/10/21 07:40:43;;;;;;;13.10;11.65;;;;;;;;;;5028079;28;20045;-56
2023/10/21 07:43:09;;;;;;;13.18;11.77;;;;;;;;;;5029505;28;20028;-56
2023/10/21 07:45:34;;;;;;;17.27;10.52;;;;;;;;;;5026012;28;20037;-56
2023/10/21 07:47:59;;;;;;;22.03;10.90;;;;;;;;;;5019420;28;20489;-56
2023/10/21 07:50:25;;;;;;;15.02;9.95;;;;;;;;;;5008693;28;20062;-56
2023/10/21 07:52:50;;;;;;;21.07;9.47;;;;;;;;;;5028349;28;20468;-56
2023/10/21 07:55:15;;;;;;;14.20;8.60;;;;;;;;;;5028401;28;20037;-56
2023/10/21 07:57:40;;;;;;;17.27;8.93;;;;;;;;;;5027397;28;20475;-56
2023/10/21 08:00:06;;;;;;;10.75;8.23;;;;;;;;;;5026682;28;20045;-56
2023/10/21 08:02:31;;;;;;;16.20;7.75;;;;;;;;;;5030222;28;20028;-56
2023/10/21 08:04:57;;;;;;;8.63;6.00;;;;;;;;;;5027743;28;20014;-56
2023/10/21 08:07:22;;;;;;;9.90;5.23;;;;;;;;;;5030175;28;20034;-56
2023/10/21 08:09:47;;;;;;;9.65;5.13;;;;;;;;;;5028462;28;20026;-56
2023/10/21 08:12:12;;;;;;;8.17;4.23;;;;;;;;;;5029293;28;20022;-56
2023/10/21 08:14:40;;;;;;;13.90;3.97;;;;;;;;;;5029921;28;20440;-57
2023/10/21 08:17:05;;;;;;;4.43;3.45;;;;;;;;;;5030261;28;20145;-56
2023/10/21 08:19:31;;;;;;;10.43;4.15;;;;;;;;;;5033607;28;20105;-57
2023/10/21 08:21:56;;;;;;;3.78;3.00;;;;;;;;;;5024699;28;20041;-56
2023/10/21 08:24:21;;;;;;;4.07;2.80;;;;;;;;;;5031815;28;20484;-56
2023/10/21 08:26:47;;;;;;;8.48;5.22;;;;;;;;;;5031139;28;20493;-56
2023/10/21 08:29:12;;;;;;;6.22;2.80;;;;;;;;;;5033057;28;20071;-56
2023/10/21 08:31:37;;;;;;;2.83;2.63;;;;;;;;;;5032712;28;20045;-56
2023/10/21 08:34:02;;;;;;;3.30;2.70;;;;;;;;;;5032954;28;20116;-57
2023/10/21 08:36:27;;;;;;;4.67;2.43;;;;;;;;;;5032253;28;20402;-56
2023/10/21 08:38:53;;;;;;;10.13;4.30;;;;;;;;;;5033462;28;20460;-56
2023/10/21 08:41:19;;;;;;;6.40;3.10;;;;;;;;;;5031401;28;20498;-56
2023/10/21 08:43:48;;;;;;;5.25;2.85;;;;;;;;;;5033944;28;20029;-56
2023/10/21 08:46:14;;;;;;;3.25;2.75;;;;;;;;;;5032501;28;20117;-56
2023/10/21 08:48:41;;;;;;;3.47;2.40;;;;;;;;;;5032893;28;20425;-57
2023/10/21 08:51:08;;;;;;;4.53;2.67;;;;;;;;;;5028239;28;20029;-57
2023/10/21 08:53:34;;;;;;;4.72;2.85;;;;;;;;;;5033713;28;20443;-63
2023/10/21 08:55:59;;;;;;;2.92;2.42;;;;;;;;;;5031026;28;20113;-56
2023/10/21 08:58:31;;;;;;;3.67;2.30;;;;;;;;;;5033237;28;20022;-56
2023/10/21 09:00:56;;;;;;;4.32;3.92;;;;;;;;;;5031023;28;20493;-59
2023/10/21 09:03:22;;;;;;;3.75;2.45;;;;;;;;;;5033048;28;20025;-56
2023/10/21 09:06:03;;;;;;;5.10;2.75;;;;;;;;;;5031975;28;20044;-56
2023/10/21 09:08:31;;;;;;;2.38;2.17;;;;;;;;;;5033444;28;20018;-56
2023/10/21 09:10:58;;;;;;;3.35;2.10;;;;;;;;;;5030863;28;20041;-56
2023/10/21 09:13:28;;;;;;;5.82;2.50;;;;;;;;;;5032737;28;20033;-56
2023/10/21 09:15:53;;;;;;;2.72;2.38;;;;;;;;;;5027577;28;20125;-57
2023/10/21 09:18:18;;;;;;;7.37;2.77;;;;;;;;;;5032628;28;20113;-56
2023/10/21 09:20:47;;;;;;;2.25;2.05;;;;;;;;;;5031571;28;20649;-56
2023/10/21 09:23:12;;;;;;;1.85;1.75;;;;;;;;;;5032899;28;20440;-56
2023/10/21 09:25:37;;;;;;;5.50;2.95;;;;;;;;;;5027623;28;20034;-57
2023/10/21 09:28:03;;;;;;;2.40;1.80;;;;;;;;;;5032475;28;20100;-56
2023/10/21 09:30:29;;;;;;;3.03;1.60;;;;;;;;;;5031369;28;20076;-56
2023/10/21 09:33:04;;;;;;;2.05;1.70;;;;;;;;;;5031942;28;20025;-56
2023/10/21 09:35:33;;;;;;;8.13;1.88;;;;;;;;;;5030895;28;20045;-56
2023/10/21 09:38:14;;;;;;;1.10;1.10;;;;;;;;;;5032714;28;20026;-56
2023/10/21 09:40:39;;;;;;;4.28;2.08;;;;;;;;;;5029184;28;20128;-56
2023/10/21 09:43:04;;;;;;;0.97;0.97;;;;;;;;;;5032101;28;20088;-56
2023/10/21 09:45:29;;;;;;;1.27;1.13;;;;;;;;;;5030697;28;20030;-56
2023/10/21 09:47:55;;;;;;;1.30;1.10;;;;;;;;;;5031369;28;20482;-56
2023/10/21 09:50:24;;;;;;;2.05;1.33;;;;;;;;;;5029987;28;20053;-56
2023/10/21 09:53:05;;;;;;;1.15;1.00;;;;;;;;;;5031706;28;20049;-56
2023/10/21 09:55:31;;;;;;;1.58;1.48;;;;;;;;;;5030433;28;20037;-56
2023/10/21 09:57:57;;;;;;;1.20;1.15;;;;;;;;;;5030300;28;20029;-56
2023/10/21 10:00:24;;;;;;;3.45;1.17;;;;;;;;;;5030909;28;20029;-56
2023/10/21 10:02:50;;;;;;;3.95;2.78;;;;;;;;;;5030493;28;20025;-56
2023/10/21 10:05:18;;;;;;;1.42;1.33;;;;;;;;;;5030668;28;20033;-56
2023/10/21 10:07:45;;;;;;;3.03;1.48;;;;;;;;;;5030664;28;20037;-56
2023/10/21 10:10:12;;;;;;;2.05;1.33;;;;;;;;;;5030381;28;20480;-56
2023/10/21 10:12:40;;;;;;;1.53;1.37;;;;;;;;;;5032652;28;20053;-56
2023/10/21 10:15:24;;;;;;;1.42;1.40;;;;;;;;;;5029783;28;20918;-56
2023/10/21 10:17:49;;;;;;;5.30;3.17;;;;;;;;;;5031322;28;20052;-56
2023/10/21 10:20:18;;;;;;;3.25;1.60;;;;;;;;;;5020136;28;20504;-56
2023/10/21 10:22:47;;;;;;;5.15;2.05;;;;;;;;;;5013643;28;20018;-56
2023/10/21 10:25:15;;;;;;;;;;;;;;;;;;5024152;28;20045;-56
2023/10/21 10:27:41;;;;;;;1.60;1.50;;;;;;;;;;5031929;28;19912;-56
2023/10/21 10:30:21;;;;;;;2.17;1.88;;;;;;;;;;5030072;28;20428;-56
2023/10/21 10:32:50;;;;;;;2.10;1.27;;;;;;;;;;5031583;28;20510;-56
2023/10/21 10:35:32;;;;;;;2.75;1.40;;;;;;;;;;5030066;28;20080;-56
2023/10/21 10:37:59;;;;;;;1.95;1.40;;;;;;;;;;5031188;28;20021;-56
2023/10/21 10:40:34;;;;;;;1.83;1.40;;;;;;;;;;5029143;28;20029;-56
2023/10/21 10:43:00;;;;;;;1.80;1.10;;;;;;;;;;5030587;28;20056;-56
2023/10/21 10:45:25;;;;;;;2.15;1.30;;;;;;;;;;5028858;28;20424;-56
2023/10/21 10:48:03;;;;;;;2.97;1.48;;;;;;;;;;5031408;28;20033;-56
2023/10/21 10:50:36;;;;;;;1.55;1.38;;;;;;;;;;5030159;28;20037;-56
2023/10/21 10:53:10;;;;;;;3.47;1.75;;;;;;;;;;5031855;28;20045;-56
2023/10/21 10:55:35;;;;;;;5.63;1.50;;;;;;;;;;5028457;28;20041;-56
2023/10/21 10:58:00;;;;;;;1.50;1.40;;;;;;;;;;5029986;28;20028;-56
2023/10/21 11:00:25;;;;;;;5.47;1.30;;;;;;;;;;5030164;28;20037;-60
2023/10/21 11:02:51;;;;;;;1.23;1.13;;;;;;;;;;5031096;28;20531;-56
2023/10/21 11:05:19;;;;;;;1.50;1.08;;;;;;;;;;5028083;28;20558;-56
2023/10/21 11:07:46;;;;;;;2.05;1.40;;;;;;;;;;5031787;28;20032;-56
2023/10/21 11:10:14;;;;;;;2.33;1.42;;;;;;;;;;5024090;28;20038;-56
2023/10/21 11:12:40;;;;;;;1.48;1.40;;;;;;;;;;5011757;28;20061;-56
2023/10/21 11:15:06;;;;;;;2.60;1.70;;;;;;;;;;5013933;28;20057;-56
2023/10/21 11:17:32;;;;;;;2.58;1.83;;;;;;;;;;5029598;28;20075;-56
2023/10/21 11:19:58;;;;;;;6.60;2.28;;;;;;;;;;5029732;28;20029;-56
2023/10/21 11:22:26;;;;;;;2.58;2.05;;;;;;;;;;5031503;28;20484;-56
2023/10/21 11:24:52;;;;;;;1.95;1.70;;;;;;;;;;5029344;28;20021;-56
2023/10/21 11:27:17;;;;;;;3.08;2.22;;;;;;;;;;5031327;28;20372;-56
2023/10/21 11:29:43;;;;;;;2.78;1.67;;;;;;;;;;5029593;28;20049;-55
2023/10/21 11:32:12;;;;;;;3.30;2.20;;;;;;;;;;5027124;28;20021;-56
2023/10/21 11:34:37;;;;;;;1.70;1.60;;;;;;;;;;5030199;28;20137;-56
2023/10/21 11:37:04;;;;;;;3.43;1.60;;;;;;;;;;5028913;28;20112;-59
2023/10/21 11:39:31;;;;;;;5.53;1.55;;;;;;;;;;5030930;28;20427;-57
2023/10/21 11:41:56;;;;;;;2.92;1.70;;;;;;;;;;5028852;28;20045;-56
2023/10/21 11:44:29;;;;;;;2.73;1.80;;;;;;;;;;5031125;28;20491;-56
2023/10/21 11:46:58;;;;;;;4.45;2.47;;;;;;;;;;5028585;28;20452;-56
2023/10/21 11:49:24;;;;;;;3.50;1.40;;;;;;;;;;5030752;28;20056;-56
2023/10/21 11:51:52;;;;;;;2.25;1.77;;;;;;;;;;5028260;28;20037;-56
2023/10/21 11:54:32;;;;;;;4.53;1.92;;;;;;;;;;5030077;28;20052;-56
2023/10/21 12:10:45;;;;;;;3.72;1.88;;;;;;;;;;5027692;28;20091;-56
2023/10/21 12:39:57;;;;;;;2.38;1.63;;;;;;;;;;5029026;28;20477;-56
2023/10/21 12:42:29;;;;;;;1.67;1.40;;;;;;;;;;5030609;28;20109;-57
2023/10/21 12:44:55;;;;;;;4.45;1.95;;;;;;;;;;5028692;28;20030;-56
2023/10/21 12:47:21;;;;;;;4.72;2.78;;;;;;;;;;5029821;28;20034;-57
2023/10/21 12:49:48;;;;;;;3.78;1.77;;;;;;;;;;5028204;28;20075;-56
2023/10/21 12:52:15;;;;;;;3.10;2.28;;;;;;;;;;5030105;28;20068;-57
2023/10/21 12:54:40;;;;;;;8.32;1.73;;;;;;;;;;5028797;28;20087;-56
2023/10/21 12:57:07;;;;;;;6.97;2.90;;;;;;;;;;5029718;28;20469;-56
2023/10/21 12:59:33;;;;;;;2.58;1.80;;;;;;;;;;5030237;28;20465;-56
2023/10/21 13:01:58;;;;;;;2.20;1.90;;;;;;;;;;5028118;28;20425;-56
2023/10/21 13:04:23;;;;;;;2.50;1.67;;;;;;;;;;5033464;28;20013;-56
2023/10/21 13:06:48;;;;;;;2.10;1.58;;;;;;;;;;5030622;28;20564;-56
2023/10/21 13:09:28;;;;;;;4.32;2.13;;;;;;;;;;5032993;28;20079;-56
2023/10/21 13:11:53;;;;;;;3.13;1.95;;;;;;;;;;5031537;28;20554;-56
2023/10/21 13:14:19;;;;;;;7.53;1.90;;;;;;;;;;5033119;28;20029;-56
2023/10/21 13:16:45;;;;;;;12.82;3.38;;;;;;;;;;5013957;28;20526;-57
2023/10/21 13:19:10;;;;;;;4.18;1.63;;;;;;;;;;5033237;28;20473;-59
2023/10/21 13:21:36;;;;;;;10.02;2.95;;;;;;;;;;5032253;28;20033;-56
2023/10/21 13:24:04;;;;;;;4.10;1.80;;;;;;;;;;5032216;28;20021;-57
2023/10/21 13:26:29;;;;;;;3.30;1.80;;;;;;;;;;5029960;28;20405;-56
2023/10/21 13:28:54;;;;;;;8.10;2.33;;;;;;;;;;5032780;28;20017;-56
2023/10/21 13:31:20;;;;;;;3.60;2.53;;;;;;;;;;5031681;28;20085;-56
2023/10/21 13:33:45;;;;;;;4.33;1.67;;;;;;;;;;5033546;28;20047;-56
2023/10/21 13:36:10;;;;;;;4.10;1.95;;;;;;;;;;5031912;28;20127;-56
2023/10/21 13:38:35;;;;;;;5.70;1.75;;;;;;;;;;5031121;28;20029;-56
2023/10/21 13:41:02;;;;;;;1.30;1.20;;;;;;;;;;5029877;28;20034;-56
2023/10/21 13:43:27;;;;;;;6.72;3.05;;;;;;;;;;5032706;28;20452;-56
2023/10/21 13:45:52;;;;;;;2.60;1.80;;;;;;;;;;5024082;28;20038;-56
2023/10/21 13:48:19;;;;;;;4.93;2.83;;;;;;;;;;5026158;28;20025;-56
2023/10/21 13:50:48;;;;;;;3.20;1.60;;;;;;;;;;5031700;28;20037;-57
2023/10/21 13:53:17;;;;;;;3.28;2.75;;;;;;;;;;5032825;28;20065;-60
2023/10/21 13:55:43;;;;;;;4.68;2.85;;;;;;;;;;5031093;28;20065;-57
2023/10/21 13:58:08;;;;;;;6.93;3.05;;;;;;;;;;5031513;28;20413;-57
2023/10/21 14:00:34;;;;;;;12.05;3.70;;;;;;;;;;5031138;28;20042;-56
2023/10/21 14:03:15;;;;;;;5.32;1.30;;;;;;;;;;5032456;28;20033;-57
2023/10/21 14:05:40;;;;;;;6.03;2.55;;;;;;;;;;5030112;28;20556;-57
2023/10/21 14:08:12;;;;;;;7.90;3.43;;;;;;;;;;5031685;28;20113;-58
2023/10/21 14:10:41;;;;;;;3.97;2.03;;;;;;;;;;5029600;28;20042;-57
2023/10/21 14:13:07;;;;;;;5.63;2.20;;;;;;;;;;5032367;28;20018;-57
2023/10/21 14:15:36;;;;;;;2.53;1.75;;;;;;;;;;5030189;28;20067;-56
2023/10/21 14:18:01;;;;;;;4.38;1.52;;;;;;;;;;5031460;28;20017;-56
2023/10/21 14:20:27;;;;;;;4.47;1.75;;;;;;;;;;5020725;28;20030;-56
2023/10/21 14:22:52;;;;;;;5.70;2.73;;;;;;;;;;5030563;28;20028;-56
2023/10/21 14:25:18;;;;;;;5.20;2.60;;;;;;;;;;5031255;28;20456;-57
2023/10/21 14:27:44;;;;;;;8.27;3.75;;;;;;;;;;5032420;28;20025;-57
2023/10/21 14:30:09;;;;;;;3.73;1.70;;;;;;;;;;5030261;28;20037;-56
2023/10/21 14:32:35;;;;;;;4.28;1.73;;;;;;;;;;5032253;28;20454;-57
2023/10/21 14:35:01;;;;;;;5.95;1.77;;;;;;;;;;5030426;28;20041;-57
2023/10/21 14:37:26;;;;;;;8.70;3.30;;;;;;;;;;5031191;28;20408;-56
2023/10/21 14:39:51;;;;;;;5.95;2.05;;;;;;;;;;5030446;28;20466;-56
2023/10/21 14:42:17;;;;;;;8.73;4.50;;;;;;;;;;5032104;28;20044;-56
2023/10/21 14:44:42;;;;;;;4.93;1.77;;;;;;;;;;5030633;28;20824;-55
2023/10/21 14:47:08;;;;;;;4.25;2.50;;;;;;;;;;5032076;28;21086;-56
2023/10/21 14:49:33;;;;;;;5.33;3.23;;;;;;;;;;5032035;28;20018;-56
2023/10/21 14:51:58;;;;;;;3.47;2.53;;;;;;;;;;5029304;28;20030;-56
2023/10/21 14:54:25;;;;;;;15.30;3.37;;;;;;;;;;5031618;28;20045;-56
2023/10/21 14:56:50;;;;;;;5.10;3.08;;;;;;;;;;5028929;28;20034;-56
2023/10/21 14:59:16;;;;;;;9.73;2.00;;;;;;;;;;5022259;28;20027;-56
2023/10/21 15:01:41;;;;;;;10.20;3.17;;;;;;;;;;5030170;28;20034;-56
2023/10/21 15:04:06;;;;;;;7.57;2.40;;;;;;;;;;5031469;28;20025;-56
2023/10/21 15:06:31;;;;;;;6.25;4.00;;;;;;;;;;5030027;28;20452;-56